createdAt,value
2019-04-27T00:01:16.915Z,84.40
2019-04-27T00:04:04.863Z,85.00
2019-04-27T00:06:46.398Z,84.10
2019-04-27T00:09:23.205Z,84.40
2019-04-27T00:12:05.571Z,85.60
2019-04-27T00:14:34.549Z,86.20
2019-04-27T00:17:20.994Z,87.10
2019-04-27T00:20:05.809Z,87.00
2019-04-27T00:22:36.791Z,85.60
2019-04-27T00:25:06.453Z,85.40
2019-04-27T00:27:35.793Z,85.10
2019-04-27T00:30:05.914Z,86.00
2019-04-27T00:32:35.265Z,84.30
2019-04-27T00:35:04.885Z,84.40
2019-04-27T00:37:38.535Z,84.20
2019-04-27T00:40:15.843Z,83.80
2019-04-27T00:42:45.183Z,84.60
2019-04-27T00:45:15.306Z,84.10
2019-04-27T00:47:56.841Z,84.20
2019-04-27T00:50:15.824Z,84.70
2019-04-27T00:52:45.155Z,84.60
2019-04-27T00:55:14.544Z,83.60
2019-04-27T00:57:54.513Z,84.00
2019-04-27T01:00:40.268Z,84.30
2019-04-27T01:03:16.972Z,84.70
2019-04-27T01:05:46.525Z,84.80
2019-04-27T01:08:15.928Z,84.80
2019-04-27T01:10:45.264Z,85.20
2019-04-27T01:13:14.584Z,84.80
2019-04-27T01:15:43.925Z,85.60
2019-04-27T01:18:15.512Z,86.40
2019-04-27T01:20:44.373Z,86.00
2019-04-27T01:23:13.773Z,85.00
2019-04-27T01:25:53.600Z,84.60
2019-04-27T01:28:33.478Z,84.20
2019-04-27T01:31:04.439Z,84.30
2019-04-27T01:33:33.772Z,84.30
2019-04-27T01:36:03.180Z,84.70
2019-04-27T01:38:32.580Z,85.60
2019-04-27T01:41:01.955Z,84.90
2019-04-27T01:43:31.291Z,84.40
2019-04-27T01:46:01.003Z,85.00
2019-04-27T01:48:30.735Z,84.80
2019-04-27T01:51:00.145Z,85.00
2019-04-27T01:53:30.441Z,85.10
2019-04-27T01:55:59.900Z,85.40
2019-04-27T01:58:29.425Z,86.60
2019-04-27T02:01:09.654Z,85.90
2019-04-27T02:03:40.822Z,86.20
2019-04-27T02:06:10.194Z,85.50
2019-04-27T02:08:40.389Z,84.70
2019-04-27T02:11:11.003Z,84.00
2019-04-27T02:13:40.435Z,84.10
2019-04-27T02:16:09.917Z,84.80
2019-04-27T02:18:40.055Z,84.10
2019-04-27T02:21:09.641Z,83.40
2019-04-27T02:23:39.357Z,83.50
2019-04-27T02:26:08.908Z,83.80
2019-04-27T02:28:39.895Z,83.80
2019-04-27T02:31:13.816Z,84.30
2019-04-27T02:33:44.793Z,84.90
2019-04-27T02:36:15.136Z,85.00
2019-04-27T02:38:44.785Z,84.70
2019-04-27T02:41:14.118Z,84.90
2019-04-27T02:43:49.773Z,85.30
2019-04-27T02:46:20.159Z,84.70
2019-04-27T02:48:58.808Z,84.20
2019-04-27T02:51:42.992Z,83.90
2019-04-27T02:54:12.690Z,83.90
2019-04-27T02:56:42.123Z,83.90
2019-04-27T02:59:12.172Z,84.30
2019-04-27T03:01:46.546Z,84.80
2019-04-27T03:04:14.365Z,84.60
2019-04-27T03:06:43.670Z,84.90
2019-04-27T03:09:13.234Z,84.60
2019-04-27T03:11:42.540Z,84.70
2019-04-27T03:14:36.189Z,84.40
2019-04-27T03:17:14.753Z,84.30
2019-04-27T03:19:55.013Z,84.80
2019-04-27T03:22:25.953Z,84.80
2019-04-27T03:25:02.910Z,84.50
2019-04-27T03:27:34.341Z,84.70
2019-04-27T03:30:04.469Z,84.40
2019-04-27T03:32:33.795Z,84.90
2019-04-27T03:35:03.999Z,84.50
2019-04-27T03:37:33.432Z,85.60
2019-04-27T03:40:03.230Z,85.00
2019-04-27T03:42:37.158Z,85.90
2019-04-27T03:45:06.852Z,85.60
2019-04-27T03:47:36.186Z,87.10
2019-04-27T03:50:10.382Z,86.60
2019-04-27T03:52:41.627Z,86.00
2019-04-27T03:55:30.433Z,86.30
2019-04-27T03:58:17.236Z,87.10
2019-04-27T04:00:46.686Z,86.90
2019-04-27T04:03:16.071Z,86.80
2019-04-27T04:05:45.403Z,86.90
2019-04-27T04:08:14.780Z,86.80
2019-04-27T04:11:04.090Z,87.60
2019-04-27T04:13:39.669Z,85.50
2019-04-27T04:16:13.740Z,85.80
2019-04-27T04:19:01.251Z,85.00
2019-04-27T04:21:30.688Z,84.60
2019-04-27T04:24:01.321Z,85.10
2019-04-27T04:26:32.725Z,85.50
2019-04-27T04:29:01.821Z,85.80
2019-04-27T04:31:33.169Z,86.90
2019-04-27T04:34:02.275Z,86.20
2019-04-27T04:36:31.658Z,87.40
2019-04-27T04:39:01.039Z,86.50
2019-04-27T04:41:40.526Z,86.40
2019-04-27T04:44:13.628Z,86.80
2019-04-27T04:46:49.927Z,86.20
2019-04-27T04:49:19.394Z,86.50
2019-04-27T04:51:50.399Z,86.10
2019-04-27T04:54:24.194Z,86.80
2019-04-27T04:56:50.886Z,86.20
2019-04-27T04:59:20.342Z,84.40
2019-04-27T05:01:50.097Z,84.40
2019-04-27T05:04:19.511Z,84.30
2019-04-27T05:06:50.595Z,84.20
2019-04-27T05:09:19.904Z,83.90
2019-04-27T05:11:49.236Z,84.00
2019-04-27T05:14:19.941Z,83.90
2019-04-27T05:16:49.326Z,84.40
2019-04-27T05:19:18.919Z,84.00
2019-04-27T05:21:49.157Z,83.80
2019-04-27T05:24:19.281Z,83.50
2019-04-27T05:26:48.850Z,83.80
2019-04-27T05:29:19.127Z,82.90
2019-04-27T05:31:49.107Z,82.80
2019-04-27T05:34:19.742Z,82.50
2019-04-27T05:36:52.463Z,82.90
2019-04-27T05:39:24.841Z,83.60
2019-04-27T05:41:51.460Z,82.90
2019-04-27T05:44:22.409Z,83.50
2019-04-27T05:47:13.167Z,82.90
2019-04-27T05:49:44.611Z,81.90
2019-04-27T05:52:29.759Z,81.30
2019-04-27T05:54:59.774Z,82.20
2019-04-27T05:57:31.523Z,82.30
2019-04-27T06:00:02.082Z,81.00
2019-04-27T06:02:31.634Z,80.50
2019-04-27T06:05:00.934Z,79.60
2019-04-27T06:07:30.345Z,78.30
2019-04-27T06:10:00.045Z,77.70
2019-04-27T06:12:29.955Z,77.70
2019-04-27T06:15:00.164Z,77.90
2019-04-27T06:17:30.225Z,77.40
2019-04-27T06:19:59.841Z,77.60
2019-04-27T06:22:29.507Z,78.30
2019-04-27T06:25:00.207Z,76.90
2019-04-27T06:27:30.740Z,75.30
2019-04-27T06:30:00.520Z,75.80
2019-04-27T06:32:29.854Z,76.00
2019-04-27T06:34:59.391Z,76.10
2019-04-27T06:37:29.323Z,75.40
2019-04-27T06:39:59.660Z,75.70
2019-04-27T06:42:29.856Z,75.90
2019-04-27T06:45:00.020Z,75.90
2019-04-27T06:47:29.986Z,75.70
2019-04-27T06:49:59.326Z,75.50
2019-04-27T06:52:29.280Z,75.00
2019-04-27T06:55:00.596Z,75.20
2019-04-27T06:57:30.155Z,75.50
2019-04-27T06:59:59.572Z,74.50
2019-04-27T07:02:29.231Z,74.60
2019-04-27T07:04:59.264Z,74.00
2019-04-27T07:07:29.531Z,73.90
2019-04-27T07:09:59.636Z,73.80
2019-04-27T07:12:29.085Z,73.00
2019-04-27T07:14:59.175Z,72.40
2019-04-27T07:17:29.112Z,72.60
2019-04-27T07:19:59.407Z,72.30
2019-04-27T07:22:29.826Z,72.30
2019-04-27T07:24:59.493Z,72.00
2019-04-27T07:27:29.256Z,71.70
2019-04-27T07:30:00.780Z,70.80
2019-04-27T07:32:29.749Z,69.20
2019-04-27T07:34:59.112Z,69.80
2019-04-27T07:37:29.442Z,69.50
2019-04-27T07:39:59.286Z,69.50
2019-04-27T07:42:37.118Z,69.10
2019-04-27T07:45:11.867Z,68.10
2019-04-27T07:47:42.822Z,68.10
2019-04-27T07:50:12.406Z,69.30
2019-04-27T07:52:41.714Z,69.20
2019-04-27T07:55:11.190Z,69.00
2019-04-27T07:57:40.582Z,68.50
2019-04-27T08:00:10.419Z,66.90
2019-04-27T08:02:39.837Z,67.40
2019-04-27T08:05:09.475Z,65.80
2019-04-27T08:07:39.271Z,66.50
2019-04-27T08:10:09.688Z,66.50
2019-04-27T08:12:39.255Z,65.60
2019-04-27T08:15:09.047Z,66.30
2019-04-27T08:17:42.520Z,66.10
2019-04-27T08:20:10.351Z,65.90
2019-04-27T08:22:39.787Z,65.90
2019-04-27T08:25:09.672Z,66.20
2019-04-27T08:27:43.297Z,66.50
2019-04-27T08:30:17.187Z,66.30
2019-04-27T08:32:50.940Z,66.10
2019-04-27T08:35:20.272Z,65.90
2019-04-27T08:37:49.744Z,64.00
2019-04-27T08:40:19.846Z,64.80
2019-04-27T08:42:51.177Z,64.70
2019-04-27T08:45:20.228Z,65.20
2019-04-27T08:47:50.002Z,65.00
2019-04-27T08:50:19.544Z,65.80
2019-04-27T08:52:50.144Z,65.60
2019-04-27T08:55:19.779Z,62.60
2019-04-27T08:57:49.237Z,63.40
2019-04-27T09:00:19.513Z,63.50
2019-04-27T09:02:50.221Z,63.40
2019-04-27T09:05:26.028Z,64.20
2019-04-27T09:08:14.671Z,64.80
2019-04-27T09:10:45.658Z,65.00
2019-04-27T09:13:19.521Z,65.80
2019-04-27T09:15:53.540Z,65.80
2019-04-27T09:18:24.581Z,65.80
2019-04-27T09:21:01.544Z,66.70
2019-04-27T09:23:30.919Z,67.20
2019-04-27T09:26:00.258Z,69.30
2019-04-27T09:28:29.629Z,70.80
2019-04-27T09:30:59.056Z,72.80
2019-04-27T09:33:28.380Z,73.10
2019-04-27T09:35:57.732Z,72.90
2019-04-27T09:38:29.682Z,73.20
2019-04-27T09:40:58.294Z,71.30
2019-04-27T09:43:27.605Z,71.60
2019-04-27T09:45:56.949Z,71.20
2019-04-27T09:48:26.277Z,71.30
2019-04-27T09:50:56.098Z,70.80
2019-04-27T09:53:27.037Z,72.20
2019-04-27T09:55:56.595Z,71.60
2019-04-27T09:58:25.920Z,72.50
2019-04-27T10:00:56.826Z,72.70
2019-04-27T10:03:26.707Z,75.00
2019-04-27T10:05:57.052Z,76.60
2019-04-27T10:08:26.695Z,78.80
2019-04-27T10:10:56.652Z,77.80
2019-04-27T10:13:27.596Z,79.40
2019-04-27T10:15:57.058Z,80.20
2019-04-27T10:18:26.653Z,79.10
2019-04-27T10:20:59.658Z,78.50
2019-04-27T10:23:27.021Z,77.90
2019-04-27T10:25:56.350Z,76.10
2019-04-27T10:28:25.678Z,77.40
2019-04-27T10:30:55.767Z,83.40
2019-04-27T10:33:26.700Z,87.20
2019-04-27T10:35:56.522Z,86.70
2019-04-27T10:38:26.163Z,88.20
2019-04-27T10:40:55.630Z,88.80
2019-04-27T10:43:25.774Z,85.60
2019-04-27T10:45:56.471Z,85.90
2019-04-27T10:48:26.504Z,83.30
2019-04-27T10:50:56.006Z,81.60
2019-04-27T10:53:26.875Z,78.50
2019-04-27T10:55:56.654Z,76.70
2019-04-27T10:58:27.306Z,76.30
2019-04-27T11:01:01.118Z,73.80
2019-04-27T11:03:48.412Z,75.20
2019-04-27T11:06:22.084Z,75.50
2019-04-27T11:08:51.459Z,72.90
2019-04-27T11:11:20.805Z,71.90
2019-04-27T11:13:50.150Z,69.70
2019-04-27T11:16:19.554Z,70.00
2019-04-27T11:18:48.943Z,69.10
2019-04-27T11:21:18.295Z,68.30
2019-04-27T11:23:47.635Z,69.00
2019-04-27T11:26:16.966Z,70.60
2019-04-27T11:28:46.408Z,67.70
2019-04-27T11:31:17.291Z,67.10
2019-04-27T11:33:46.668Z,66.20
2019-04-27T11:36:17.701Z,66.70
2019-04-27T11:38:56.531Z,66.10
2019-04-27T11:41:26.309Z,65.80
2019-04-27T11:43:56.589Z,65.30
2019-04-27T11:46:26.709Z,64.40
2019-04-27T11:48:58.302Z,64.50
2019-04-27T11:51:27.264Z,64.70
2019-04-27T11:53:56.608Z,64.30
2019-04-27T11:56:27.457Z,64.00
2019-04-27T11:58:56.946Z,62.70
2019-04-27T12:01:27.026Z,62.50
2019-04-27T12:03:56.465Z,61.60
2019-04-27T12:06:25.950Z,60.90
2019-04-27T12:08:55.253Z,62.10
2019-04-27T12:11:26.107Z,61.30
2019-04-27T12:13:56.173Z,60.70
2019-04-27T12:16:26.220Z,60.40
2019-04-27T12:18:56.387Z,60.90
2019-04-27T12:21:25.769Z,60.80
2019-04-27T12:23:55.124Z,62.40
2019-04-27T12:26:26.063Z,61.30
2019-04-27T12:28:56.140Z,61.00
2019-04-27T12:31:35.992Z,61.40
2019-04-27T12:34:06.136Z,60.60
2019-04-27T12:36:35.952Z,60.10
2019-04-27T12:39:11.788Z,59.50
2019-04-27T12:41:41.242Z,59.60
2019-04-27T12:44:10.718Z,60.00
2019-04-27T12:46:40.206Z,59.60
2019-04-27T12:49:09.892Z,60.00
2019-04-27T12:51:39.205Z,58.60
2019-04-27T12:54:10.189Z,57.70
2019-04-27T12:56:47.152Z,56.50
2019-04-27T12:59:18.130Z,57.30
2019-04-27T13:01:47.447Z,59.20
2019-04-27T13:04:16.791Z,63.80
2019-04-27T13:06:47.022Z,65.00
2019-04-27T13:09:17.327Z,64.80
2019-04-27T13:11:46.716Z,64.20
2019-04-27T13:14:16.415Z,64.70
2019-04-27T13:16:47.475Z,61.90
2019-04-27T13:19:17.069Z,61.00
2019-04-27T13:21:46.990Z,61.40
2019-04-27T13:24:16.406Z,60.50
2019-04-27T13:26:45.763Z,60.20
2019-04-27T13:29:16.648Z,58.90
2019-04-27T13:31:46.103Z,58.80
2019-04-27T13:34:15.941Z,56.40
2019-04-27T13:36:45.799Z,55.40
2019-04-27T13:39:15.817Z,55.60
2019-04-27T13:41:46.280Z,56.40
2019-04-27T13:44:16.096Z,57.00
2019-04-27T13:47:02.241Z,56.90
2019-04-27T13:49:33.230Z,57.70
2019-04-27T13:52:09.680Z,57.90
2019-04-27T13:54:39.140Z,57.70
2019-04-27T13:57:08.545Z,58.00
2019-04-27T13:59:37.934Z,58.40
2019-04-27T14:02:07.472Z,59.20
2019-04-27T14:04:36.805Z,58.90
2019-04-27T14:07:06.204Z,58.80
2019-04-27T14:09:35.548Z,58.60
2019-04-27T14:12:09.457Z,57.70
2019-04-27T14:14:39.095Z,57.60
2019-04-27T14:17:09.817Z,58.00
2019-04-27T14:19:39.519Z,57.90
2019-04-27T14:22:09.242Z,58.70
2019-04-27T14:24:41.813Z,58.70
2019-04-27T14:27:11.945Z,57.40
2019-04-27T14:29:41.411Z,57.90
2019-04-27T14:32:11.168Z,58.70
2019-04-27T14:34:40.529Z,59.90
2019-04-27T14:37:09.856Z,59.30
2019-04-27T14:39:40.830Z,61.00
2019-04-27T14:42:10.318Z,64.70
2019-04-27T14:44:39.667Z,67.30
2019-04-27T14:47:09.123Z,66.20
2019-04-27T14:49:39.097Z,69.40
2019-04-27T14:52:09.651Z,73.30
2019-04-27T14:54:46.028Z,79.40
2019-04-27T14:57:10.045Z,91.70
2019-04-27T14:59:39.449Z,94.10
2019-04-27T15:02:08.837Z,96.10
2019-04-27T15:04:40.222Z,96.10
2019-04-27T15:07:09.242Z,97.40
2019-04-27T15:09:38.551Z,97.90
2019-04-27T15:12:08.016Z,97.10
2019-04-27T15:14:39.034Z,97.60
2019-04-27T15:17:10.389Z,96.80
2019-04-27T15:19:41.141Z,94.30
2019-04-27T15:22:19.014Z,95.30
2019-04-27T15:24:47.149Z,95.30
2019-04-27T15:27:15.843Z,94.60
2019-04-27T15:29:45.149Z,94.10
2019-04-27T15:32:16.125Z,93.40
2019-04-27T15:34:48.218Z,93.40
2019-04-27T15:37:22.065Z,93.50
2019-04-27T15:40:12.460Z,93.30
2019-04-27T15:42:49.031Z,94.10
2019-04-27T15:45:15.849Z,92.50
2019-04-27T15:47:47.708Z,93.20
2019-04-27T15:50:15.508Z,92.60
2019-04-27T15:52:44.869Z,92.90
2019-04-27T15:55:31.430Z,90.50
2019-04-27T15:57:47.125Z,90.50
2019-04-27T16:00:21.278Z,90.40
2019-04-27T16:02:52.785Z,92.10
2019-04-27T16:05:23.589Z,89.10
2019-04-27T16:07:53.673Z,86.50
2019-04-27T16:10:23.134Z,84.00
2019-04-27T16:13:05.735Z,83.40
2019-04-27T16:15:23.529Z,82.60
2019-04-27T16:17:55.885Z,87.50
2019-04-27T16:20:30.225Z,86.00
2019-04-27T16:22:56.812Z,81.90
2019-04-27T16:25:29.964Z,84.00
2019-04-27T16:27:57.888Z,80.00
2019-04-27T16:30:28.780Z,84.00
2019-04-27T16:32:59.609Z,85.20
2019-04-27T16:35:28.886Z,84.70
2019-04-27T16:38:02.285Z,86.10
2019-04-27T16:40:31.619Z,84.00
2019-04-27T16:43:00.969Z,85.20
2019-04-27T16:45:30.513Z,83.50
2019-04-27T16:48:02.077Z,82.90
2019-04-27T16:50:30.881Z,84.90
2019-04-27T16:53:01.045Z,86.70
2019-04-27T16:55:34.199Z,81.10
2019-04-27T16:58:01.627Z,81.60
2019-04-27T17:00:31.258Z,81.30
2019-04-27T17:03:02.836Z,81.30
2019-04-27T17:05:34.738Z,81.20
2019-04-27T17:08:02.847Z,78.60
2019-04-27T17:10:32.422Z,76.80
2019-04-27T17:13:06.295Z,78.60
2019-04-27T17:15:53.851Z,75.90
2019-04-27T17:18:30.896Z,75.40
2019-04-27T17:21:05.593Z,74.80
2019-04-27T17:23:31.776Z,75.90
2019-04-27T17:26:06.208Z,73.10
2019-04-27T17:28:46.288Z,73.40
2019-04-27T17:31:21.095Z,71.60
2019-04-27T17:33:50.158Z,73.10
2019-04-27T17:36:19.871Z,72.40
2019-04-27T17:38:51.144Z,72.90
2019-04-27T17:41:20.750Z,74.00
2019-04-27T17:43:50.231Z,70.80
2019-04-27T17:46:19.932Z,72.20
2019-04-27T17:48:50.619Z,69.80
2019-04-27T17:51:19.942Z,69.10
2019-04-27T17:53:50.035Z,67.30
2019-04-27T17:56:19.471Z,74.50
2019-04-27T17:58:48.836Z,81.70
2019-04-27T18:01:19.109Z,85.70
2019-04-27T18:03:58.476Z,86.00
2019-04-27T18:06:24.076Z,90.30
2019-04-27T18:08:55.031Z,90.70
2019-04-27T18:11:22.355Z,90.70
2019-04-27T18:13:55.838Z,89.30
2019-04-27T18:16:23.677Z,89.60
2019-04-27T18:19:00.081Z,88.20
2019-04-27T18:21:31.013Z,88.00
2019-04-27T18:24:04.433Z,89.20
2019-04-27T18:26:48.351Z,90.70
2019-04-27T18:29:08.152Z,89.80
2019-04-27T18:31:38.311Z,90.20
2019-04-27T18:34:14.856Z,89.00
2019-04-27T18:36:43.916Z,90.00
2019-04-27T18:39:13.618Z,90.30
2019-04-27T18:41:49.173Z,90.30
2019-04-27T18:44:12.209Z,88.50
2019-04-27T18:46:41.583Z,90.30
2019-04-27T18:49:12.656Z,88.80
2019-04-27T18:52:04.498Z,89.00
2019-04-27T18:54:33.098Z,89.50
2019-04-27T18:57:04.812Z,88.90
2019-04-27T18:59:33.372Z,88.60
2019-04-27T19:02:02.679Z,88.10
2019-04-27T19:04:32.009Z,88.70
2019-04-27T19:07:01.315Z,89.20
2019-04-27T19:09:30.649Z,88.90
2019-04-27T19:12:02.129Z,88.50
2019-04-27T19:14:31.450Z,88.90
2019-04-27T19:17:00.760Z,89.10
2019-04-27T19:19:30.100Z,90.70
2019-04-27T19:21:59.416Z,91.60
2019-04-27T19:24:29.130Z,92.20
2019-04-27T19:27:15.042Z,93.20
2019-04-27T19:29:35.464Z,93.30
2019-04-27T19:32:04.856Z,94.60
2019-04-27T19:34:34.199Z,94.50
2019-04-27T19:37:04.054Z,94.90
2019-04-27T19:39:33.513Z,95.40
2019-04-27T19:42:03.873Z,96.10
2019-04-27T19:44:33.214Z,96.90
2019-04-27T19:47:05.619Z,97.80
2019-04-27T19:49:33.579Z,98.10
2019-04-27T19:52:02.913Z,97.90
2019-04-27T19:54:32.236Z,97.50
2019-04-27T19:57:01.709Z,95.60
2019-04-27T19:59:32.656Z,97.80
2019-04-27T20:02:03.637Z,96.40
2019-04-27T20:04:34.823Z,97.10
2019-04-27T20:07:04.448Z,96.80
2019-04-27T20:09:35.419Z,96.80
2019-04-27T20:12:05.670Z,97.10
2019-04-27T20:14:55.529Z,96.30
2019-04-27T20:17:31.096Z,96.00
2019-04-27T20:20:01.483Z,97.90
2019-04-27T20:22:31.038Z,97.60
2019-04-27T20:25:01.925Z,97.40
2019-04-27T20:27:45.082Z,98.10
2019-04-27T20:30:03.204Z,98.10
2019-04-27T20:32:32.787Z,98.00
2019-04-27T20:35:02.171Z,98.00
2019-04-27T20:37:31.549Z,96.20
2019-04-27T20:40:01.649Z,96.80
2019-04-27T20:42:31.614Z,96.30
2019-04-27T20:45:01.956Z,96.10
2019-04-27T20:47:31.921Z,95.70
2019-04-27T20:50:01.221Z,96.10
2019-04-27T20:52:35.239Z,97.60
2019-04-27T20:55:06.594Z,95.50
2019-04-27T20:57:35.927Z,96.30
2019-04-27T21:00:11.804Z,95.70
2019-04-27T21:02:42.918Z,95.80
2019-04-27T21:05:31.039Z,95.20
2019-04-27T21:08:06.977Z,96.30
2019-04-27T21:10:35.785Z,96.30
2019-04-27T21:13:05.344Z,97.10
2019-04-27T21:15:34.654Z,96.10
2019-04-27T21:18:04.064Z,96.30
2019-04-27T21:20:33.374Z,95.30
2019-04-27T21:23:02.698Z,95.10
2019-04-27T21:25:33.607Z,95.80
2019-04-27T21:28:15.330Z,94.80
2019-04-27T21:30:34.217Z,94.20
2019-04-27T21:33:03.556Z,95.20
2019-04-27T21:35:33.935Z,95.10
2019-04-27T21:38:04.783Z,95.10
2019-04-27T21:40:34.335Z,95.10
2019-04-27T21:43:03.657Z,94.40
2019-04-27T21:45:33.053Z,94.30
2019-04-27T21:48:02.379Z,94.80
2019-04-27T21:50:31.690Z,95.00
2019-04-27T21:53:05.358Z,94.30
2019-04-27T21:55:36.377Z,94.70
2019-04-27T21:58:05.894Z,94.70
2019-04-27T22:00:42.970Z,93.50
2019-04-27T22:03:16.833Z,94.10
2019-04-27T22:05:46.357Z,94.00
2019-04-27T22:08:15.761Z,93.60
2019-04-27T22:10:45.070Z,93.40
2019-04-27T22:13:14.468Z,93.60
2019-04-27T22:15:43.770Z,93.70
2019-04-27T22:18:13.173Z,93.70
2019-04-27T22:20:42.786Z,93.90
2019-04-27T22:23:22.959Z,94.00
2019-04-27T22:25:52.035Z,94.30
2019-04-27T22:28:22.434Z,94.50
2019-04-27T22:30:51.775Z,93.80
2019-04-27T22:33:21.463Z,94.20
2019-04-27T22:35:51.784Z,93.50
2019-04-27T22:38:21.216Z,93.50
2019-04-27T22:40:52.166Z,93.70
2019-04-27T22:43:41.442Z,93.60
2019-04-27T22:46:12.367Z,92.40
2019-04-27T22:48:41.693Z,94.10
2019-04-27T22:51:11.710Z,94.50
2019-04-27T22:53:41.166Z,94.70
2019-04-27T22:56:17.770Z,94.20
2019-04-27T22:58:58.603Z,93.70
2019-04-27T23:01:27.193Z,94.00
2019-04-27T23:04:08.888Z,93.60
2019-04-27T23:06:38.267Z,93.90
2019-04-27T23:09:08.009Z,93.00
2019-04-27T23:11:37.486Z,93.70
2019-04-27T23:14:06.885Z,93.60
2019-04-27T23:16:37.837Z,93.60
2019-04-27T23:19:07.180Z,93.80
2019-04-27T23:21:36.486Z,93.40
2019-04-27T23:24:05.828Z,94.00
2019-04-27T23:26:35.128Z,95.00
2019-04-27T23:29:13.091Z,92.20
2019-04-27T23:31:40.842Z,93.90
2019-04-27T23:34:11.736Z,94.00
2019-04-27T23:36:42.440Z,94.20
2019-04-27T23:39:12.191Z,93.20
2019-04-27T23:41:41.573Z,92.80
2019-04-27T23:44:10.902Z,92.60
2019-04-27T23:46:40.235Z,93.40
2019-04-27T23:49:09.562Z,92.80
2019-04-27T23:51:40.513Z,92.00
2019-04-27T23:54:11.569Z,93.80
2019-04-27T23:56:42.053Z,93.40
2019-04-27T23:59:23.744Z,93.50
